Terminal Aerodrome Forecast
Issued by NWS

Home | Current Version | Previous Version | Graphics & Text | Print | Product List | Glossary Off
Versions: 1 2 3 4 5 6 7 8 9 10 11 12 13 14 15 16 17 18 19 20 21 22 23 24

000
FTUS43 KGRB 112142 AAB
TAFRHI
TAF AMD
KRHI 112142Z 1122/1218 31009KT 6SM BR OVC008
     FM112300 34013G23KT P6SM -SHSN SCT011 BKN026
     FM120700 33011G19KT P6SM -SHSN BKN045
     FM121200 32011G18KT P6SM -SHSN BKN027
     FM121700 33011G19KT P6SM -SHSN BKN035=

USA.gov is the U.S. government's official web portal to all federal, state and local government web resources and services.